sensor_id;sensor_type;location;lat;lon;timestamp;temperature;humidity
16881;DHT22;8557;52.068;5.198;2023-01-08T00:01:06;9.30;99.90
16881;DHT22;8557;52.068;5.198;2023-01-08T00:03:34;9.20;99.90
16881;DHT22;8557;52.068;5.198;2023-01-08T00:06:01;9.20;99.90
16881;DHT22;8557;52.068;5.198;2023-01-08T00:08:28;9.20;99.90
16881;DHT22;8557;52.068;5.198;2023-01-08T00:10:57;9.20;99.90
16881;DHT22;8557;52.068;5.198;2023-01-08T00:13:24;9.20;99.90
16881;DHT22;8557;52.068;5.198;2023-01-08T00:15:51;9.20;99.90
16881;DHT22;8557;52.068;5.198;2023-01-08T00:18:18;9.20;99.90
16881;DHT22;8557;52.068;5.198;2023-01-08T00:20:46;9.20;99.90
16881;DHT22;8557;52.068;5.198;2023-01-08T00:23:17;9.20;99.90
16881;DHT22;8557;52.068;5.198;2023-01-08T00:25:45;9.10;99.90
16881;DHT22;8557;52.068;5.198;2023-01-08T00:28:13;9.20;99.90
16881;DHT22;8557;52.068;5.198;2023-01-08T00:30:40;9.10;99.90
16881;DHT22;8557;52.068;5.198;2023-01-08T00:33:07;9.20;99.90
16881;DHT22;8557;52.068;5.198;2023-01-08T00:35:34;9.20;99.90
16881;DHT22;8557;52.068;5.198;2023-01-08T00:38:02;9.10;99.90
16881;DHT22;8557;52.068;5.198;2023-01-08T00:40:29;9.10;99.90
16881;DHT22;8557;52.068;5.198;2023-01-08T00:42:56;9.10;99.90
16881;DHT22;8557;52.068;5.198;2023-01-08T00:45:24;9.00;99.90
16881;DHT22;8557;52.068;5.198;2023-01-08T00:47:51;9.10;99.90
16881;DHT22;8557;52.068;5.198;2023-01-08T00:50:18;9.40;99.90
16881;DHT22;8557;52.068;5.198;2023-01-08T00:52:44;9.30;99.90
16881;DHT22;8557;52.068;5.198;2023-01-08T00:55:11;9.40;99.90
16881;DHT22;8557;52.068;5.198;2023-01-08T00:57:41;9.40;99.90
16881;DHT22;8557;52.068;5.198;2023-01-08T01:00:10;9.40;99.90
16881;DHT22;8557;52.068;5.198;2023-01-08T01:02:39;9.40;99.90
16881;DHT22;8557;52.068;5.198;2023-01-08T01:05:06;9.50;99.90
16881;DHT22;8557;52.068;5.198;2023-01-08T01:07:35;9.60;99.90
16881;DHT22;8557;52.068;5.198;2023-01-08T01:10:02;9.60;99.90
16881;DHT22;8557;52.068;5.198;2023-01-08T01:12:29;9.70;99.90
16881;DHT22;8557;52.068;5.198;2023-01-08T01:14:55;9.70;99.90
16881;DHT22;8557;52.068;5.198;2023-01-08T01:17:22;9.80;99.90
16881;DHT22;8557;52.068;5.198;2023-01-08T01:19:50;9.80;99.90
16881;DHT22;8557;52.068;5.198;2023-01-08T01:22:17;9.80;99.90
16881;DHT22;8557;52.068;5.198;2023-01-08T01:24:44;9.80;99.90
16881;DHT22;8557;52.068;5.198;2023-01-08T01:27:11;9.70;99.90
16881;DHT22;8557;52.068;5.198;2023-01-08T01:29:37;9.70;99.90
16881;DHT22;8557;52.068;5.198;2023-01-08T01:32:05;9.70;99.90
16881;DHT22;8557;52.068;5.198;2023-01-08T01:34:31;9.70;99.90
16881;DHT22;8557;52.068;5.198;2023-01-08T01:37:00;9.70;99.90
16881;DHT22;8557;52.068;5.198;2023-01-08T01:39:28;9.60;99.90
16881;DHT22;8557;52.068;5.198;2023-01-08T01:41:55;9.70;99.90
16881;DHT22;8557;52.068;5.198;2023-01-08T01:44:38;9.70;99.90
16881;DHT22;8557;52.068;5.198;2023-01-08T01:47:12;9.70;99.90
16881;DHT22;8557;52.068;5.198;2023-01-08T01:49:44;9.70;99.90
16881;DHT22;8557;52.068;5.198;2023-01-08T01:52:14;9.70;99.90
16881;DHT22;8557;52.068;5.198;2023-01-08T01:54:41;9.60;99.90
16881;DHT22;8557;52.068;5.198;2023-01-08T01:57:07;9.60;99.90
16881;DHT22;8557;52.068;5.198;2023-01-08T01:59:34;9.60;99.90
16881;DHT22;8557;52.068;5.198;2023-01-08T02:02:01;9.60;99.90
16881;DHT22;8557;52.068;5.198;2023-01-08T02:04:28;9.60;99.90
16881;DHT22;8557;52.068;5.198;2023-01-08T02:07:00;9.60;99.90
16881;DHT22;8557;52.068;5.198;2023-01-08T02:09:38;9.50;99.90
16881;DHT22;8557;52.068;5.198;2023-01-08T02:12:09;9.60;99.90
16881;DHT22;8557;52.068;5.198;2023-01-08T02:14:52;9.60;99.90
16881;DHT22;8557;52.068;5.198;2023-01-08T02:17:25;9.60;99.90
16881;DHT22;8557;52.068;5.198;2023-01-08T02:19:58;9.60;99.90
16881;DHT22;8557;52.068;5.198;2023-01-08T02:22:37;9.60;99.90
16881;DHT22;8557;52.068;5.198;2023-01-08T02:25:10;9.50;99.90
16881;DHT22;8557;52.068;5.198;2023-01-08T02:27:44;9.60;99.90
16881;DHT22;8557;52.068;5.198;2023-01-08T02:30:13;9.60;99.90
16881;DHT22;8557;52.068;5.198;2023-01-08T02:32:41;9.60;99.90
16881;DHT22;8557;52.068;5.198;2023-01-08T02:35:09;9.60;99.90
16881;DHT22;8557;52.068;5.198;2023-01-08T02:37:37;9.40;99.90
16881;DHT22;8557;52.068;5.198;2023-01-08T02:40:17;9.40;99.90
16881;DHT22;8557;52.068;5.198;2023-01-08T02:42:55;9.50;99.90
16881;DHT22;8557;52.068;5.198;2023-01-08T02:45:29;9.40;99.90
16881;DHT22;8557;52.068;5.198;2023-01-08T02:48:03;9.50;99.90
16881;DHT22;8557;52.068;5.198;2023-01-08T02:50:36;9.50;99.90
16881;DHT22;8557;52.068;5.198;2023-01-08T02:53:11;9.70;99.90
16881;DHT22;8557;52.068;5.198;2023-01-08T02:55:41;9.60;99.90
16881;DHT22;8557;52.068;5.198;2023-01-08T02:58:11;9.60;99.90
16881;DHT22;8557;52.068;5.198;2023-01-08T03:03:09;9.60;99.90
16881;DHT22;8557;52.068;5.198;2023-01-08T03:05:39;9.60;99.90
16881;DHT22;8557;52.068;5.198;2023-01-08T03:08:08;9.60;99.90
16881;DHT22;8557;52.068;5.198;2023-01-08T03:10:36;9.60;99.90
16881;DHT22;8557;52.068;5.198;2023-01-08T03:13:06;9.40;99.90
16881;DHT22;8557;52.068;5.198;2023-01-08T03:15:39;9.30;99.90
16881;DHT22;8557;52.068;5.198;2023-01-08T03:18:11;9.30;99.90
16881;DHT22;8557;52.068;5.198;2023-01-08T03:20:39;9.30;99.90
16881;DHT22;8557;52.068;5.198;2023-01-08T03:23:09;9.30;99.90
16881;DHT22;8557;52.068;5.198;2023-01-08T03:25:38;9.50;99.90
16881;DHT22;8557;52.068;5.198;2023-01-08T03:28:10;9.50;99.90
16881;DHT22;8557;52.068;5.198;2023-01-08T03:30:40;9.60;99.90
16881;DHT22;8557;52.068;5.198;2023-01-08T03:33:09;9.60;99.90
16881;DHT22;8557;52.068;5.198;2023-01-08T03:35:39;9.50;99.90
16881;DHT22;8557;52.068;5.198;2023-01-08T03:38:11;9.50;99.90
16881;DHT22;8557;52.068;5.198;2023-01-08T03:40:40;9.50;99.90
16881;DHT22;8557;52.068;5.198;2023-01-08T03:43:08;9.50;99.90
16881;DHT22;8557;52.068;5.198;2023-01-08T03:45:40;9.40;99.90
16881;DHT22;8557;52.068;5.198;2023-01-08T03:48:10;9.40;99.90
16881;DHT22;8557;52.068;5.198;2023-01-08T03:50:37;9.50;99.90
16881;DHT22;8557;52.068;5.198;2023-01-08T03:53:07;9.50;99.90
16881;DHT22;8557;52.068;5.198;2023-01-08T03:55:34;9.50;99.90
16881;DHT22;8557;52.068;5.198;2023-01-08T03:58:01;9.40;99.90
16881;DHT22;8557;52.068;5.198;2023-01-08T04:00:28;9.50;99.90
16881;DHT22;8557;52.068;5.198;2023-01-08T04:02:56;9.40;99.90
16881;DHT22;8557;52.068;5.198;2023-01-08T04:05:23;9.40;99.90
16881;DHT22;8557;52.068;5.198;2023-01-08T04:07:54;9.50;99.90
16881;DHT22;8557;52.068;5.198;2023-01-08T04:10:21;9.40;99.90
16881;DHT22;8557;52.068;5.198;2023-01-08T04:12:47;9.50;99.90
16881;DHT22;8557;52.068;5.198;2023-01-08T04:15:15;9.40;99.90
16881;DHT22;8557;52.068;5.198;2023-01-08T04:17:42;9.40;99.90
16881;DHT22;8557;52.068;5.198;2023-01-08T04:20:10;9.40;99.90
16881;DHT22;8557;52.068;5.198;2023-01-08T04:22:37;9.40;99.90
16881;DHT22;8557;52.068;5.198;2023-01-08T04:25:04;9.30;99.90
16881;DHT22;8557;52.068;5.198;2023-01-08T04:27:32;9.40;99.90
16881;DHT22;8557;52.068;5.198;2023-01-08T04:29:59;9.40;99.90
16881;DHT22;8557;52.068;5.198;2023-01-08T04:32:26;9.40;99.90
16881;DHT22;8557;52.068;5.198;2023-01-08T04:34:52;9.40;99.90
16881;DHT22;8557;52.068;5.198;2023-01-08T04:37:21;9.40;99.90
16881;DHT22;8557;52.068;5.198;2023-01-08T04:39:47;9.40;99.90
16881;DHT22;8557;52.068;5.198;2023-01-08T04:42:14;9.30;99.90
16881;DHT22;8557;52.068;5.198;2023-01-08T04:44:41;9.20;99.90
16881;DHT22;8557;52.068;5.198;2023-01-08T04:47:08;9.10;99.90
16881;DHT22;8557;52.068;5.198;2023-01-08T04:49:35;9.20;99.90
16881;DHT22;8557;52.068;5.198;2023-01-08T04:52:02;9.20;99.90
16881;DHT22;8557;52.068;5.198;2023-01-08T04:54:31;9.20;99.90
16881;DHT22;8557;52.068;5.198;2023-01-08T04:56:58;9.10;99.90
16881;DHT22;8557;52.068;5.198;2023-01-08T04:59:25;9.00;99.90
16881;DHT22;8557;52.068;5.198;2023-01-08T05:01:51;9.00;99.90
16881;DHT22;8557;52.068;5.198;2023-01-08T05:04:18;9.00;99.90
16881;DHT22;8557;52.068;5.198;2023-01-08T05:06:45;9.00;99.90
16881;DHT22;8557;52.068;5.198;2023-01-08T05:09:12;8.90;99.90
16881;DHT22;8557;52.068;5.198;2023-01-08T05:11:40;8.80;99.90
16881;DHT22;8557;52.068;5.198;2023-01-08T05:14:08;8.80;99.90
16881;DHT22;8557;52.068;5.198;2023-01-08T05:16:35;8.80;99.90
16881;DHT22;8557;52.068;5.198;2023-01-08T05:19:02;8.70;99.90
16881;DHT22;8557;52.068;5.198;2023-01-08T05:21:29;8.60;99.90
16881;DHT22;8557;52.068;5.198;2023-01-08T05:23:55;8.50;99.90
16881;DHT22;8557;52.068;5.198;2023-01-08T05:26:22;8.50;99.90
16881;DHT22;8557;52.068;5.198;2023-01-08T05:28:50;8.50;99.90
16881;DHT22;8557;52.068;5.198;2023-01-08T05:31:17;8.50;99.90
16881;DHT22;8557;52.068;5.198;2023-01-08T05:33:44;8.40;99.90
16881;DHT22;8557;52.068;5.198;2023-01-08T05:36:12;8.40;99.90
16881;DHT22;8557;52.068;5.198;2023-01-08T05:38:39;8.20;99.90
16881;DHT22;8557;52.068;5.198;2023-01-08T05:41:06;8.20;99.90
16881;DHT22;8557;52.068;5.198;2023-01-08T05:43:34;8.10;99.90
16881;DHT22;8557;52.068;5.198;2023-01-08T05:46:03;8.10;99.90
16881;DHT22;8557;52.068;5.198;2023-01-08T05:48:32;8.10;99.90
16881;DHT22;8557;52.068;5.198;2023-01-08T05:51:00;8.20;99.90
16881;DHT22;8557;52.068;5.198;2023-01-08T05:53:26;8.20;99.90
16881;DHT22;8557;52.068;5.198;2023-01-08T05:55:58;8.20;99.90
16881;DHT22;8557;52.068;5.198;2023-01-08T05:58:25;8.10;99.90
16881;DHT22;8557;52.068;5.198;2023-01-08T06:00:52;8.00;99.90
16881;DHT22;8557;52.068;5.198;2023-01-08T06:03:21;8.00;99.90
16881;DHT22;8557;52.068;5.198;2023-01-08T06:05:48;8.00;99.90
16881;DHT22;8557;52.068;5.198;2023-01-08T06:08:15;7.90;99.90
16881;DHT22;8557;52.068;5.198;2023-01-08T06:10:42;7.90;99.90
16881;DHT22;8557;52.068;5.198;2023-01-08T06:13:09;7.80;99.90
16881;DHT22;8557;52.068;5.198;2023-01-08T06:15:37;7.80;99.90
16881;DHT22;8557;52.068;5.198;2023-01-08T06:18:04;7.70;99.90
16881;DHT22;8557;52.068;5.198;2023-01-08T06:20:32;7.60;99.90
16881;DHT22;8557;52.068;5.198;2023-01-08T06:22:59;7.70;99.90
16881;DHT22;8557;52.068;5.198;2023-01-08T06:25:27;7.70;99.90
16881;DHT22;8557;52.068;5.198;2023-01-08T06:27:54;7.60;99.90
16881;DHT22;8557;52.068;5.198;2023-01-08T06:30:21;7.60;99.90
16881;DHT22;8557;52.068;5.198;2023-01-08T06:32:48;7.60;99.90
16881;DHT22;8557;52.068;5.198;2023-01-08T06:35:15;7.70;99.90
16881;DHT22;8557;52.068;5.198;2023-01-08T06:37:43;7.60;99.90
16881;DHT22;8557;52.068;5.198;2023-01-08T06:40:10;7.60;99.90
16881;DHT22;8557;52.068;5.198;2023-01-08T06:42:37;7.60;99.90
16881;DHT22;8557;52.068;5.198;2023-01-08T06:45:05;7.60;99.90
16881;DHT22;8557;52.068;5.198;2023-01-08T06:47:33;7.60;99.90
16881;DHT22;8557;52.068;5.198;2023-01-08T06:50:00;7.70;99.90
16881;DHT22;8557;52.068;5.198;2023-01-08T06:52:27;7.60;99.90
16881;DHT22;8557;52.068;5.198;2023-01-08T06:54:55;7.50;99.90
16881;DHT22;8557;52.068;5.198;2023-01-08T06:57:22;7.40;99.90
16881;DHT22;8557;52.068;5.198;2023-01-08T06:59:49;7.50;99.90
16881;DHT22;8557;52.068;5.198;2023-01-08T07:02:17;7.50;99.90
16881;DHT22;8557;52.068;5.198;2023-01-08T07:04:44;7.50;99.90
16881;DHT22;8557;52.068;5.198;2023-01-08T07:07:12;7.60;99.90
16881;DHT22;8557;52.068;5.198;2023-01-08T07:09:39;7.50;99.90
16881;DHT22;8557;52.068;5.198;2023-01-08T07:12:11;7.50;99.90
16881;DHT22;8557;52.068;5.198;2023-01-08T07:14:38;7.50;99.90
16881;DHT22;8557;52.068;5.198;2023-01-08T07:17:05;7.60;99.90
16881;DHT22;8557;52.068;5.198;2023-01-08T07:19:32;7.50;99.90
16881;DHT22;8557;52.068;5.198;2023-01-08T07:21:59;7.50;99.90
16881;DHT22;8557;52.068;5.198;2023-01-08T07:24:26;7.60;99.90
16881;DHT22;8557;52.068;5.198;2023-01-08T07:26:53;7.50;99.90
16881;DHT22;8557;52.068;5.198;2023-01-08T07:29:21;7.50;99.90
16881;DHT22;8557;52.068;5.198;2023-01-08T07:31:48;7.50;99.90
16881;DHT22;8557;52.068;5.198;2023-01-08T07:34:15;7.50;99.90
16881;DHT22;8557;52.068;5.198;2023-01-08T07:36:42;7.60;99.90
16881;DHT22;8557;52.068;5.198;2023-01-08T07:39:09;7.50;99.90
16881;DHT22;8557;52.068;5.198;2023-01-08T07:41:35;7.50;99.90
16881;DHT22;8557;52.068;5.198;2023-01-08T07:44:02;7.40;99.90
16881;DHT22;8557;52.068;5.198;2023-01-08T07:46:31;7.50;99.90
16881;DHT22;8557;52.068;5.198;2023-01-08T07:48:58;7.50;99.90
16881;DHT22;8557;52.068;5.198;2023-01-08T07:51:25;7.50;99.90
16881;DHT22;8557;52.068;5.198;2023-01-08T07:53:52;7.50;99.90
16881;DHT22;8557;52.068;5.198;2023-01-08T07:56:20;7.50;99.90
16881;DHT22;8557;52.068;5.198;2023-01-08T07:58:48;7.50;99.90
16881;DHT22;8557;52.068;5.198;2023-01-08T08:01:15;7.40;99.90
16881;DHT22;8557;52.068;5.198;2023-01-08T08:03:43;7.40;99.90
16881;DHT22;8557;52.068;5.198;2023-01-08T08:06:10;7.50;99.90
16881;DHT22;8557;52.068;5.198;2023-01-08T08:08:37;7.40;99.90
16881;DHT22;8557;52.068;5.198;2023-01-08T08:11:04;7.40;99.90
16881;DHT22;8557;52.068;5.198;2023-01-08T08:13:31;7.40;99.90
16881;DHT22;8557;52.068;5.198;2023-01-08T08:16:00;7.40;99.90
16881;DHT22;8557;52.068;5.198;2023-01-08T08:18:27;7.40;99.90
16881;DHT22;8557;52.068;5.198;2023-01-08T08:20:56;7.50;99.90
16881;DHT22;8557;52.068;5.198;2023-01-08T08:23:23;7.40;99.90
16881;DHT22;8557;52.068;5.198;2023-01-08T08:25:50;7.50;99.90
16881;DHT22;8557;52.068;5.198;2023-01-08T08:28:17;7.60;99.90
16881;DHT22;8557;52.068;5.198;2023-01-08T08:30:44;7.60;99.90
16881;DHT22;8557;52.068;5.198;2023-01-08T08:33:11;7.60;99.90
16881;DHT22;8557;52.068;5.198;2023-01-08T08:35:38;7.60;99.90
16881;DHT22;8557;52.068;5.198;2023-01-08T08:38:07;7.60;99.90
16881;DHT22;8557;52.068;5.198;2023-01-08T08:40:33;7.60;99.90
16881;DHT22;8557;52.068;5.198;2023-01-08T08:43:02;7.60;99.90
16881;DHT22;8557;52.068;5.198;2023-01-08T08:45:29;7.60;99.90
16881;DHT22;8557;52.068;5.198;2023-01-08T08:47:56;7.60;99.90
16881;DHT22;8557;52.068;5.198;2023-01-08T08:50:23;7.60;99.90
16881;DHT22;8557;52.068;5.198;2023-01-08T08:52:50;7.60;99.90
16881;DHT22;8557;52.068;5.198;2023-01-08T08:55:18;7.60;99.90
16881;DHT22;8557;52.068;5.198;2023-01-08T08:57:46;7.60;99.90
16881;DHT22;8557;52.068;5.198;2023-01-08T09:00:15;7.60;99.90
16881;DHT22;8557;52.068;5.198;2023-01-08T09:02:42;7.60;99.90
16881;DHT22;8557;52.068;5.198;2023-01-08T09:05:09;7.60;99.90
16881;DHT22;8557;52.068;5.198;2023-01-08T09:07:36;7.50;99.90
16881;DHT22;8557;52.068;5.198;2023-01-08T09:10:04;7.50;99.90
16881;DHT22;8557;52.068;5.198;2023-01-08T09:12:32;7.60;99.90
16881;DHT22;8557;52.068;5.198;2023-01-08T09:14:59;7.70;99.90
16881;DHT22;8557;52.068;5.198;2023-01-08T09:17:26;7.70;99.90
16881;DHT22;8557;52.068;5.198;2023-01-08T09:19:52;7.70;99.90
16881;DHT22;8557;52.068;5.198;2023-01-08T09:22:19;7.70;99.90
16881;DHT22;8557;52.068;5.198;2023-01-08T09:24:46;7.80;99.90
16881;DHT22;8557;52.068;5.198;2023-01-08T09:27:13;7.90;99.90
16881;DHT22;8557;52.068;5.198;2023-01-08T09:29:42;7.90;99.90
16881;DHT22;8557;52.068;5.198;2023-01-08T09:32:08;8.00;99.90
16881;DHT22;8557;52.068;5.198;2023-01-08T09:34:35;8.00;99.90
16881;DHT22;8557;52.068;5.198;2023-01-08T09:37:03;8.10;99.90
16881;DHT22;8557;52.068;5.198;2023-01-08T09:39:30;8.10;99.90
16881;DHT22;8557;52.068;5.198;2023-01-08T09:41:59;8.10;99.90
16881;DHT22;8557;52.068;5.198;2023-01-08T09:44:30;8.10;99.90
16881;DHT22;8557;52.068;5.198;2023-01-08T09:47:00;8.20;99.90
16881;DHT22;8557;52.068;5.198;2023-01-08T09:49:35;8.20;99.90
16881;DHT22;8557;52.068;5.198;2023-01-08T09:52:05;8.30;99.90
16881;DHT22;8557;52.068;5.198;2023-01-08T09:54:32;8.30;99.90
16881;DHT22;8557;52.068;5.198;2023-01-08T09:56:58;8.40;99.90
16881;DHT22;8557;52.068;5.198;2023-01-08T09:59:26;8.50;99.90
16881;DHT22;8557;52.068;5.198;2023-01-08T10:01:53;8.50;99.90
16881;DHT22;8557;52.068;5.198;2023-01-08T10:04:23;8.60;99.90
16881;DHT22;8557;52.068;5.198;2023-01-08T10:06:52;8.70;99.90
16881;DHT22;8557;52.068;5.198;2023-01-08T10:09:24;8.70;99.90
16881;DHT22;8557;52.068;5.198;2023-01-08T10:11:53;8.70;99.90
16881;DHT22;8557;52.068;5.198;2023-01-08T10:14:23;8.70;99.90
16881;DHT22;8557;52.068;5.198;2023-01-08T10:16:52;8.80;99.90
16881;DHT22;8557;52.068;5.198;2023-01-08T10:19:22;8.80;99.90
16881;DHT22;8557;52.068;5.198;2023-01-08T10:21:49;8.90;99.90
16881;DHT22;8557;52.068;5.198;2023-01-08T10:24:16;8.90;99.90
16881;DHT22;8557;52.068;5.198;2023-01-08T10:26:44;9.00;99.90
16881;DHT22;8557;52.068;5.198;2023-01-08T10:29:13;9.00;99.90
16881;DHT22;8557;52.068;5.198;2023-01-08T10:31:49;9.00;99.90
16881;DHT22;8557;52.068;5.198;2023-01-08T10:34:31;9.00;99.90
16881;DHT22;8557;52.068;5.198;2023-01-08T10:37:20;9.00;99.90
16881;DHT22;8557;52.068;5.198;2023-01-08T10:39:48;9.20;99.90
16881;DHT22;8557;52.068;5.198;2023-01-08T10:42:16;9.20;99.90
16881;DHT22;8557;52.068;5.198;2023-01-08T10:44:55;9.30;99.90
16881;DHT22;8557;52.068;5.198;2023-01-08T10:47:23;9.30;99.90
16881;DHT22;8557;52.068;5.198;2023-01-08T10:49:52;9.40;99.90
16881;DHT22;8557;52.068;5.198;2023-01-08T10:52:25;9.40;99.90
16881;DHT22;8557;52.068;5.198;2023-01-08T10:54:53;9.50;99.90
16881;DHT22;8557;52.068;5.198;2023-01-08T10:57:22;9.60;99.90
16881;DHT22;8557;52.068;5.198;2023-01-08T10:59:49;9.60;99.90
16881;DHT22;8557;52.068;5.198;2023-01-08T11:02:23;9.70;99.90
16881;DHT22;8557;52.068;5.198;2023-01-08T11:04:52;9.70;99.90
16881;DHT22;8557;52.068;5.198;2023-01-08T11:07:21;9.70;99.90
16881;DHT22;8557;52.068;5.198;2023-01-08T11:09:50;9.80;99.90
16881;DHT22;8557;52.068;5.198;2023-01-08T11:12:30;9.90;99.90
16881;DHT22;8557;52.068;5.198;2023-01-08T11:14:58;10.00;99.90
16881;DHT22;8557;52.068;5.198;2023-01-08T11:17:26;10.00;99.90
16881;DHT22;8557;52.068;5.198;2023-01-08T11:20:05;10.10;99.90
16881;DHT22;8557;52.068;5.198;2023-01-08T11:22:32;10.10;99.90
16881;DHT22;8557;52.068;5.198;2023-01-08T11:24:59;10.20;99.90
16881;DHT22;8557;52.068;5.198;2023-01-08T11:27:30;10.20;99.90
16881;DHT22;8557;52.068;5.198;2023-01-08T11:30:01;10.30;99.90
16881;DHT22;8557;52.068;5.198;2023-01-08T11:32:39;10.30;99.90
16881;DHT22;8557;52.068;5.198;2023-01-08T11:35:14;10.30;99.90
16881;DHT22;8557;52.068;5.198;2023-01-08T11:37:48;10.40;99.90
16881;DHT22;8557;52.068;5.198;2023-01-08T11:40:16;10.40;99.90
16881;DHT22;8557;52.068;5.198;2023-01-08T11:42:58;10.50;99.90
16881;DHT22;8557;52.068;5.198;2023-01-08T11:45:36;10.60;99.90
16881;DHT22;8557;52.068;5.198;2023-01-08T11:48:23;10.70;99.90
16881;DHT22;8557;52.068;5.198;2023-01-08T11:51:07;10.80;99.90
16881;DHT22;8557;52.068;5.198;2023-01-08T11:53:46;10.80;99.90
16881;DHT22;8557;52.068;5.198;2023-01-08T11:56:19;10.70;99.90
16881;DHT22;8557;52.068;5.198;2023-01-08T11:59:10;10.80;99.90
16881;DHT22;8557;52.068;5.198;2023-01-08T12:01:47;10.90;99.90
16881;DHT22;8557;52.068;5.198;2023-01-08T12:04:42;11.10;99.90
16881;DHT22;8557;52.068;5.198;2023-01-08T12:07:18;11.20;99.90
16881;DHT22;8557;52.068;5.198;2023-01-08T12:09:54;11.20;99.90
16881;DHT22;8557;52.068;5.198;2023-01-08T12:12:36;11.00;99.90
16881;DHT22;8557;52.068;5.198;2023-01-08T12:15:11;11.10;99.90
16881;DHT22;8557;52.068;5.198;2023-01-08T12:18:01;11.00;99.90
16881;DHT22;8557;52.068;5.198;2023-01-08T12:20:35;11.00;99.90
16881;DHT22;8557;52.068;5.198;2023-01-08T12:23:17;11.00;99.90
16881;DHT22;8557;52.068;5.198;2023-01-08T12:25:59;11.00;99.90
16881;DHT22;8557;52.068;5.198;2023-01-08T12:28:57;11.10;99.90
16881;DHT22;8557;52.068;5.198;2023-01-08T12:31:38;11.10;99.90
16881;DHT22;8557;52.068;5.198;2023-01-08T12:34:11;11.10;99.90
16881;DHT22;8557;52.068;5.198;2023-01-08T12:36:43;11.00;99.90
16881;DHT22;8557;52.068;5.198;2023-01-08T12:39:15;11.00;99.90
16881;DHT22;8557;52.068;5.198;2023-01-08T12:41:46;11.10;99.90
16881;DHT22;8557;52.068;5.198;2023-01-08T12:44:21;11.20;99.90
16881;DHT22;8557;52.068;5.198;2023-01-08T12:46:52;11.20;99.90
16881;DHT22;8557;52.068;5.198;2023-01-08T12:49:24;11.20;99.90
16881;DHT22;8557;52.068;5.198;2023-01-08T12:51:58;11.20;99.90
16881;DHT22;8557;52.068;5.198;2023-01-08T12:54:32;11.20;99.90
16881;DHT22;8557;52.068;5.198;2023-01-08T12:57:04;11.10;99.90
16881;DHT22;8557;52.068;5.198;2023-01-08T12:59:38;11.00;99.90
16881;DHT22;8557;52.068;5.198;2023-01-08T13:02:17;11.10;99.90
16881;DHT22;8557;52.068;5.198;2023-01-08T13:04:46;11.10;99.90
16881;DHT22;8557;52.068;5.198;2023-01-08T13:07:18;11.00;99.90
16881;DHT22;8557;52.068;5.198;2023-01-08T13:09:53;11.00;99.90
16881;DHT22;8557;52.068;5.198;2023-01-08T13:12:28;10.90;99.90
16881;DHT22;8557;52.068;5.198;2023-01-08T13:14:57;10.90;99.90
16881;DHT22;8557;52.068;5.198;2023-01-08T13:17:23;10.90;99.90
16881;DHT22;8557;52.068;5.198;2023-01-08T13:19:53;11.10;99.90
16881;DHT22;8557;52.068;5.198;2023-01-08T13:22:26;11.20;99.90
16881;DHT22;8557;52.068;5.198;2023-01-08T13:27:50;11.50;99.90
16881;DHT22;8557;52.068;5.198;2023-01-08T13:30:35;11.40;99.90
16881;DHT22;8557;52.068;5.198;2023-01-08T13:33:25;11.30;99.90
16881;DHT22;8557;52.068;5.198;2023-01-08T13:36:05;11.30;99.90
16881;DHT22;8557;52.068;5.198;2023-01-08T13:38:32;11.50;99.90
16881;DHT22;8557;52.068;5.198;2023-01-08T13:41:00;11.40;99.90
16881;DHT22;8557;52.068;5.198;2023-01-08T13:43:29;11.30;99.90
16881;DHT22;8557;52.068;5.198;2023-01-08T13:46:12;11.20;99.90
16881;DHT22;8557;52.068;5.198;2023-01-08T13:48:53;11.40;99.90
16881;DHT22;8557;52.068;5.198;2023-01-08T13:51:32;11.30;99.90
16881;DHT22;8557;52.068;5.198;2023-01-08T13:54:05;11.10;99.90
16881;DHT22;8557;52.068;5.198;2023-01-08T13:56:42;11.00;99.90
16881;DHT22;8557;52.068;5.198;2023-01-08T13:59:19;11.10;99.90
16881;DHT22;8557;52.068;5.198;2023-01-08T14:01:51;11.10;99.90
16881;DHT22;8557;52.068;5.198;2023-01-08T14:04:19;10.90;99.90
16881;DHT22;8557;52.068;5.198;2023-01-08T14:06:47;10.90;99.90
16881;DHT22;8557;52.068;5.198;2023-01-08T14:09:20;10.90;99.90
16881;DHT22;8557;52.068;5.198;2023-01-08T14:11:52;11.10;99.90
16881;DHT22;8557;52.068;5.198;2023-01-08T14:14:21;11.10;99.90
16881;DHT22;8557;52.068;5.198;2023-01-08T14:16:51;11.30;99.90
16881;DHT22;8557;52.068;5.198;2023-01-08T14:19:20;11.50;99.90
16881;DHT22;8557;52.068;5.198;2023-01-08T14:21:48;11.40;97.20
16881;DHT22;8557;52.068;5.198;2023-01-08T14:24:16;11.30;99.90
16881;DHT22;8557;52.068;5.198;2023-01-08T14:26:51;11.20;99.90
16881;DHT22;8557;52.068;5.198;2023-01-08T14:29:20;11.20;99.90
16881;DHT22;8557;52.068;5.198;2023-01-08T14:31:47;11.20;99.90
16881;DHT22;8557;52.068;5.198;2023-01-08T14:36:43;11.00;99.90
16881;DHT22;8557;52.068;5.198;2023-01-08T14:39:10;11.00;99.90
16881;DHT22;8557;52.068;5.198;2023-01-08T14:41:39;10.90;99.90
16881;DHT22;8557;52.068;5.198;2023-01-08T14:44:26;11.20;99.90
16881;DHT22;8557;52.068;5.198;2023-01-08T14:46:53;11.00;99.90
16881;DHT22;8557;52.068;5.198;2023-01-08T14:49:23;10.80;99.90
16881;DHT22;8557;52.068;5.198;2023-01-08T14:51:51;10.60;99.90
16881;DHT22;8557;52.068;5.198;2023-01-08T14:54:20;10.50;99.90
16881;DHT22;8557;52.068;5.198;2023-01-08T14:56:50;10.40;99.90
16881;DHT22;8557;52.068;5.198;2023-01-08T14:59:20;10.30;99.90
16881;DHT22;8557;52.068;5.198;2023-01-08T15:01:53;10.20;99.90
16881;DHT22;8557;52.068;5.198;2023-01-08T15:04:21;10.20;99.90
16881;DHT22;8557;52.068;5.198;2023-01-08T15:06:49;10.10;99.90
16881;DHT22;8557;52.068;5.198;2023-01-08T15:09:20;10.10;99.90
16881;DHT22;8557;52.068;5.198;2023-01-08T15:11:51;10.00;99.90
16881;DHT22;8557;52.068;5.198;2023-01-08T15:14:21;10.00;99.90
16881;DHT22;8557;52.068;5.198;2023-01-08T15:16:50;9.90;99.90
16881;DHT22;8557;52.068;5.198;2023-01-08T15:19:23;9.90;99.90
16881;DHT22;8557;52.068;5.198;2023-01-08T15:21:52;9.90;99.90
16881;DHT22;8557;52.068;5.198;2023-01-08T15:24:21;9.90;99.90
16881;DHT22;8557;52.068;5.198;2023-01-08T15:26:49;9.80;99.90
16881;DHT22;8557;52.068;5.198;2023-01-08T15:29:18;9.70;99.90
16881;DHT22;8557;52.068;5.198;2023-01-08T15:31:46;9.70;99.90
16881;DHT22;8557;52.068;5.198;2023-01-08T15:34:14;9.60;99.90
16881;DHT22;8557;52.068;5.198;2023-01-08T15:36:45;9.60;99.90
16881;DHT22;8557;52.068;5.198;2023-01-08T15:39:12;9.50;99.90
16881;DHT22;8557;52.068;5.198;2023-01-08T15:41:39;9.50;99.90
16881;DHT22;8557;52.068;5.198;2023-01-08T15:44:24;9.40;99.90
16881;DHT22;8557;52.068;5.198;2023-01-08T15:46:51;9.40;99.90
16881;DHT22;8557;52.068;5.198;2023-01-08T15:49:18;9.30;99.90
16881;DHT22;8557;52.068;5.198;2023-01-08T15:51:47;9.30;99.90
16881;DHT22;8557;52.068;5.198;2023-01-08T15:54:15;9.20;99.90
16881;DHT22;8557;52.068;5.198;2023-01-08T15:56:42;9.20;99.90
16881;DHT22;8557;52.068;5.198;2023-01-08T15:59:09;9.20;99.90
16881;DHT22;8557;52.068;5.198;2023-01-08T16:01:36;9.10;99.90
16881;DHT22;8557;52.068;5.198;2023-01-08T16:04:04;9.10;99.90
16881;DHT22;8557;52.068;5.198;2023-01-08T16:06:30;9.00;99.90
16881;DHT22;8557;52.068;5.198;2023-01-08T16:08:59;9.00;99.90
16881;DHT22;8557;52.068;5.198;2023-01-08T16:11:27;9.00;99.90
16881;DHT22;8557;52.068;5.198;2023-01-08T16:13:54;8.90;99.90
16881;DHT22;8557;52.068;5.198;2023-01-08T16:16:20;8.90;99.90
16881;DHT22;8557;52.068;5.198;2023-01-08T16:18:47;8.90;99.90
16881;DHT22;8557;52.068;5.198;2023-01-08T16:21:14;8.80;99.90